createdAt,value
2019-04-21T00:00:35.336Z,5.10
2019-04-21T00:01:39.866Z,5.30
2019-04-21T00:02:37.749Z,5.50
2019-04-21T00:03:42.285Z,4.90
2019-04-21T00:04:46.545Z,5.00
2019-04-21T00:05:52.976Z,4.90
2019-04-21T00:07:01.275Z,5.00
2019-04-21T00:07:54.317Z,5.30
2019-04-21T00:09:00.882Z,4.90
2019-04-21T00:10:57.836Z,4.90
2019-04-21T00:11:55.674Z,5.30
2019-04-21T00:12:52.323Z,5.40
2019-04-21T00:13:47.030Z,5.00
2019-04-21T00:14:45.032Z,5.40
2019-04-21T00:15:42.279Z,5.20
2019-04-21T00:16:44.144Z,5.20
2019-04-21T00:17:35.078Z,5.00
2019-04-21T00:18:40.691Z,5.00
2019-04-21T00:19:37.062Z,5.00
2019-04-21T00:20:39.636Z,5.20
2019-04-21T00:21:40.490Z,5.00
2019-04-21T00:22:44.337Z,5.10
2019-04-21T00:23:53.842Z,5.60
2019-04-21T00:25:46.140Z,5.80
2019-04-21T00:26:53.147Z,5.20
2019-04-21T00:27:55.224Z,5.40
2019-04-21T00:28:59.412Z,5.30
2019-04-21T00:29:56.671Z,5.90
2019-04-21T00:30:50.877Z,5.30
2019-04-21T00:31:45.557Z,7.20
2019-04-21T00:32:46.049Z,6.80
2019-04-21T00:33:39.174Z,5.40
2019-04-21T00:34:34.286Z,5.20
2019-04-21T00:35:41.456Z,6.20
2019-04-21T00:36:47.549Z,6.30
2019-04-21T00:37:53.174Z,5.90
2019-04-21T00:39:09.542Z,6.60
2019-04-21T00:40:02.172Z,5.50
2019-04-21T00:40:56.714Z,5.50
2019-04-21T00:41:53.747Z,5.50
2019-04-21T00:42:48.754Z,5.20
2019-04-21T00:43:49.403Z,5.90
2019-04-21T00:44:54.240Z,6.30
2019-04-21T00:45:44.876Z,5.80
2019-04-21T00:46:47.239Z,6.00
2019-04-21T00:47:51.137Z,5.70
2019-04-21T00:48:53.571Z,5.80
2019-04-21T00:49:56.522Z,5.60
2019-04-21T00:51:10.623Z,5.20
2019-04-21T00:52:07.240Z,5.50
2019-04-21T00:53:00.451Z,5.30
2019-04-21T00:55:10.960Z,5.30
2019-04-21T00:55:59.704Z,4.80
2019-04-21T00:56:56.259Z,5.70
2019-04-21T00:57:57.195Z,5.60
2019-04-21T00:58:59.835Z,4.80
2019-04-21T00:59:52.175Z,5.30
2019-04-21T01:01:00.439Z,5.60
2019-04-21T01:01:55.502Z,5.60
2019-04-21T01:02:56.167Z,5.00
2019-04-21T01:03:57.729Z,5.40
2019-04-21T01:05:00.048Z,6.20
2019-04-21T01:06:14.365Z,5.80
2019-04-21T01:06:57.626Z,6.40
2019-04-21T01:07:54.653Z,6.10
2019-04-21T01:08:55.073Z,5.40
2019-04-21T01:09:50.929Z,5.80
2019-04-21T01:10:47.365Z,5.40
2019-04-21T01:11:55.295Z,5.30
2019-04-21T01:12:54.703Z,5.10
2019-04-21T01:13:58.001Z,5.10
2019-04-21T01:14:58.161Z,5.20
2019-04-21T01:15:52.790Z,5.40
2019-04-21T01:16:57.637Z,4.90
2019-04-21T01:17:52.175Z,5.10
2019-04-21T01:18:54.574Z,5.40
2019-04-21T01:19:50.642Z,4.90
2019-04-21T01:20:33.164Z,5.10
2019-04-21T01:21:32.145Z,5.60
2019-04-21T01:22:32.101Z,5.10
2019-04-21T01:23:32.108Z,5.50
2019-04-21T01:24:36.177Z,5.10
2019-04-21T01:25:38.191Z,4.80
2019-04-21T01:26:43.786Z,5.10
2019-04-21T01:27:53.846Z,4.90
2019-04-21T01:28:54.449Z,5.20
2019-04-21T01:29:58.761Z,5.20
2019-04-21T01:30:53.558Z,4.70
2019-04-21T01:31:48.237Z,4.80
2019-04-21T01:32:53.215Z,5.00
2019-04-21T01:33:57.482Z,5.20
2019-04-21T01:34:53.255Z,5.10
2019-04-21T01:35:54.911Z,5.30
2019-04-21T01:36:52.925Z,5.40
2019-04-21T01:37:57.764Z,5.10
2019-04-21T01:38:58.288Z,5.50
2019-04-21T01:39:54.505Z,5.50
2019-04-21T01:40:57.124Z,5.60
2019-04-21T01:41:57.230Z,5.30
2019-04-21T01:42:51.414Z,5.50
2019-04-21T01:43:50.343Z,5.20
2019-04-21T01:44:53.475Z,5.40
2019-04-21T01:45:48.765Z,5.10
2019-04-21T01:46:49.046Z,5.60
2019-04-21T01:47:52.178Z,5.40
2019-04-21T01:48:49.398Z,5.50
2019-04-21T01:49:45.353Z,5.20
2019-04-21T01:50:51.268Z,5.50
2019-04-21T01:52:03.121Z,5.70
2019-04-21T01:52:56.005Z,5.50
2019-04-21T01:53:55.135Z,5.30
2019-04-21T01:54:55.130Z,5.20
2019-04-21T01:55:58.742Z,5.60
2019-04-21T01:56:51.238Z,5.10
2019-04-21T01:57:52.158Z,5.30
2019-04-21T01:58:44.348Z,5.70
2019-04-21T01:59:48.773Z,5.30
2019-04-21T02:00:48.255Z,5.40
2019-04-21T02:01:52.335Z,5.40
2019-04-21T02:02:59.279Z,5.40
2019-04-21T02:04:57.581Z,5.10
2019-04-21T02:06:00.020Z,5.70
2019-04-21T02:06:57.297Z,5.80
2019-04-21T02:08:51.455Z,5.80
2019-04-21T02:09:59.292Z,5.70
2019-04-21T02:10:56.048Z,5.60
2019-04-21T02:11:56.368Z,6.00
2019-04-21T02:12:52.459Z,5.70
2019-04-21T02:13:57.192Z,5.80
2019-04-21T02:15:00.430Z,5.40
2019-04-21T02:15:55.547Z,5.80
2019-04-21T02:16:52.106Z,5.50
2019-04-21T02:17:53.783Z,5.40
2019-04-21T02:18:52.968Z,5.90
2019-04-21T02:19:51.457Z,5.70
2019-04-21T02:20:41.007Z,5.80
2019-04-21T02:21:48.843Z,5.20
2019-04-21T02:23:10.015Z,5.50
2019-04-21T02:23:58.688Z,5.30
2019-04-21T02:24:57.771Z,5.40
2019-04-21T02:25:58.786Z,5.60
2019-04-21T02:26:57.314Z,5.70
2019-04-21T02:27:59.492Z,5.80
2019-04-21T02:29:01.845Z,5.70
2019-04-21T02:29:55.929Z,5.40
2019-04-21T02:32:14.282Z,5.80
2019-04-21T02:33:13.735Z,5.90
2019-04-21T02:34:04.524Z,5.50
2019-04-21T02:36:17.073Z,5.50
2019-04-21T02:37:17.641Z,5.80
2019-04-21T02:38:11.970Z,5.60
2019-04-21T02:39:15.886Z,5.60
2019-04-21T02:40:57.916Z,5.80
2019-04-21T02:42:02.896Z,5.80
2019-04-21T02:43:05.674Z,5.80
2019-04-21T02:44:08.627Z,5.80
2019-04-21T02:45:00.341Z,5.80
2019-04-21T02:46:04.792Z,5.60
2019-04-21T02:47:14.254Z,5.90
2019-04-21T02:48:08.883Z,5.80
2019-04-21T02:49:05.637Z,5.60
2019-04-21T02:50:09.916Z,5.90
2019-04-21T02:50:57.727Z,5.70
2019-04-21T02:52:27.461Z,6.00
2019-04-21T02:53:05.509Z,5.70
2019-04-21T02:54:35.925Z,5.80
2019-04-21T02:55:02.727Z,5.80
2019-04-21T02:56:05.711Z,6.20
2019-04-21T02:58:06.221Z,5.50
2019-04-21T02:59:05.309Z,5.90
2019-04-21T03:00:06.433Z,5.70
2019-04-21T03:01:10.043Z,5.70
2019-04-21T03:04:06.242Z,6.10
2019-04-21T03:05:02.147Z,6.30
2019-04-21T03:06:15.387Z,5.60
2019-04-21T03:07:09.707Z,5.80
2019-04-21T03:08:05.624Z,5.80
2019-04-21T03:10:00.111Z,5.80
2019-04-21T03:11:09.086Z,6.10
2019-04-21T03:13:08.941Z,5.80
2019-04-21T03:14:11.061Z,6.00
2019-04-21T03:15:04.345Z,5.90
2019-04-21T03:16:09.493Z,6.30
2019-04-21T03:17:09.632Z,6.20
2019-04-21T03:18:09.742Z,6.20
2019-04-21T03:20:02.899Z,5.90
2019-04-21T03:22:05.170Z,6.30
2019-04-21T03:23:07.817Z,6.10
2019-04-21T03:24:05.856Z,5.70
2019-04-21T03:26:16.490Z,5.90
2019-04-21T03:29:05.830Z,6.00
2019-04-21T03:36:38.386Z,5.90
2019-04-21T03:38:06.194Z,6.20
2019-04-21T03:39:04.662Z,6.10
2019-04-21T03:40:03.264Z,6.10
2019-04-21T03:41:08.588Z,6.10
2019-04-21T03:42:07.352Z,6.40
2019-04-21T03:43:04.442Z,6.10
2019-04-21T03:44:12.344Z,6.30
2019-04-21T03:45:25.347Z,6.40
2019-04-21T03:46:01.258Z,5.90
2019-04-21T03:47:08.353Z,6.50
2019-04-21T03:48:04.723Z,6.40
2019-04-21T03:51:04.388Z,6.40
2019-04-21T03:52:11.118Z,6.50
2019-04-21T03:53:03.469Z,6.20
2019-04-21T03:53:59.980Z,6.70
2019-04-21T03:55:12.544Z,6.40
2019-04-21T03:57:19.965Z,6.60
2019-04-21T03:58:16.962Z,6.50
2019-04-21T04:00:18.126Z,6.00
2019-04-21T04:03:35.287Z,6.30
2019-04-21T04:05:05.726Z,6.40
2019-04-21T04:06:08.024Z,6.50
2019-04-21T04:07:19.092Z,6.70
2019-04-21T04:08:07.618Z,6.60
2019-04-21T04:09:14.431Z,6.90
2019-04-21T04:10:08.305Z,6.50
2019-04-21T04:11:58.321Z,6.30
2019-04-21T04:13:07.285Z,6.70
2019-04-21T04:14:20.268Z,6.60
2019-04-21T04:15:00.644Z,6.90
2019-04-21T04:17:14.657Z,6.50
2019-04-21T04:18:03.793Z,6.60
2019-04-21T04:18:59.117Z,6.50
2019-04-21T04:20:05.365Z,6.80
2019-04-21T04:21:16.859Z,6.70
2019-04-21T04:22:04.040Z,6.90
2019-04-21T04:23:03.002Z,7.20
2019-04-21T04:25:04.603Z,7.80
2019-04-21T04:26:16.964Z,7.70
2019-04-21T04:27:12.731Z,7.30
2019-04-21T04:30:08.090Z,7.10
2019-04-21T04:31:05.107Z,7.20
2019-04-21T04:31:55.401Z,7.10
2019-04-21T04:32:57.484Z,7.10
2019-04-21T04:34:05.018Z,7.10
2019-04-21T04:35:03.890Z,7.80
2019-04-21T04:37:05.966Z,7.70
2019-04-21T04:38:03.670Z,8.10
2019-04-21T04:39:17.989Z,8.10
2019-04-21T04:41:09.665Z,8.00
2019-04-21T04:42:27.221Z,8.10
2019-04-21T04:43:07.930Z,7.80
2019-04-21T04:44:05.166Z,7.70
2019-04-21T04:46:03.805Z,7.60
2019-04-21T04:49:10.604Z,7.40
2019-04-21T04:51:16.947Z,7.20
2019-04-21T04:52:52.597Z,7.30
2019-04-21T04:53:54.476Z,7.10
2019-04-21T04:56:05.007Z,7.00
2019-04-21T04:57:10.005Z,6.90
2019-04-21T05:00:15.662Z,6.70
2019-04-21T05:01:28.791Z,7.30
2019-04-21T05:02:14.971Z,6.80
2019-04-21T05:03:01.435Z,6.80
2019-04-21T05:04:05.892Z,6.90
2019-04-21T05:06:18.682Z,6.70
2019-04-21T05:07:07.077Z,6.80
2019-04-21T05:08:19.727Z,6.70
2019-04-21T05:09:15.101Z,6.40
2019-04-21T05:10:00.043Z,6.60
2019-04-21T05:11:07.770Z,6.50
2019-04-21T05:11:55.295Z,6.40
2019-04-21T05:12:57.034Z,6.90
2019-04-21T05:14:59.263Z,6.50
2019-04-21T05:16:01.582Z,6.50
2019-04-21T05:17:03.937Z,6.40
2019-04-21T05:18:01.155Z,6.70
2019-04-21T05:21:04.228Z,6.80
2019-04-21T05:21:55.484Z,6.60
2019-04-21T05:22:53.209Z,7.00
2019-04-21T05:23:51.036Z,6.90
2019-04-21T05:24:49.264Z,6.80
2019-04-21T05:25:48.116Z,6.80
2019-04-21T05:26:47.906Z,6.60
2019-04-21T05:27:47.348Z,6.70
2019-04-21T05:28:44.690Z,7.10
2019-04-21T05:29:53.934Z,6.80
2019-04-21T05:30:55.345Z,6.80
2019-04-21T05:32:07.861Z,6.60
2019-04-21T05:32:52.540Z,7.00
2019-04-21T05:33:57.658Z,6.90
2019-04-21T05:34:50.886Z,7.10
2019-04-21T05:35:49.295Z,6.80
2019-04-21T05:36:52.343Z,6.90
2019-04-21T05:37:50.395Z,7.30
2019-04-21T05:38:50.278Z,7.00
2019-04-21T05:39:49.278Z,7.30
2019-04-21T05:40:46.025Z,7.30
2019-04-21T05:41:41.357Z,7.50
2019-04-21T05:42:45.559Z,7.40
2019-04-21T05:43:54.127Z,7.70
2019-04-21T05:44:58.806Z,7.10
2019-04-21T05:45:53.314Z,7.80
2019-04-21T05:47:05.565Z,7.40
2019-04-21T05:47:57.916Z,7.20
2019-04-21T05:48:53.130Z,7.10
2019-04-21T05:49:50.946Z,7.10
2019-04-21T05:50:52.263Z,7.60
2019-04-21T05:51:44.317Z,7.20
2019-04-21T05:52:45.972Z,7.10
2019-04-21T05:54:03.092Z,7.20
2019-04-21T05:54:57.290Z,7.50
2019-04-21T05:56:50.563Z,7.10
2019-04-21T05:57:46.704Z,7.30
2019-04-21T05:58:49.696Z,7.60
2019-04-21T05:59:49.868Z,7.40
2019-04-21T06:01:06.473Z,7.80
2019-04-21T06:01:57.258Z,6.90
2019-04-21T06:02:59.422Z,7.80
2019-04-21T06:03:57.047Z,7.60
2019-04-21T06:06:00.444Z,7.30
2019-04-21T06:06:56.794Z,7.60
2019-04-21T06:07:52.509Z,7.50
2019-04-21T06:08:49.696Z,7.40
2019-04-21T06:09:56.885Z,7.60
2019-04-21T06:10:55.578Z,7.70
2019-04-21T06:11:51.404Z,7.70
2019-04-21T06:13:03.645Z,7.50
2019-04-21T06:13:55.561Z,7.70
2019-04-21T06:14:55.856Z,7.40
2019-04-21T06:16:55.597Z,7.30
2019-04-21T06:17:57.859Z,7.30
2019-04-21T06:19:00.935Z,7.30
2019-04-21T06:19:55.871Z,7.40
2019-04-21T06:20:54.576Z,7.50
2019-04-21T06:21:55.736Z,7.00
2019-04-21T06:22:52.029Z,7.40
2019-04-21T06:23:50.131Z,7.80
2019-04-21T06:25:21.694Z,7.40
2019-04-21T06:27:08.217Z,7.50
2019-04-21T06:27:52.665Z,7.20
2019-04-21T06:28:50.101Z,7.80
2019-04-21T06:29:54.656Z,7.80
2019-04-21T06:31:00.493Z,7.30
2019-04-21T06:32:58.352Z,7.40
2019-04-21T06:33:50.696Z,7.70
2019-04-21T06:36:21.587Z,7.40
2019-04-21T06:36:57.289Z,7.50
2019-04-21T06:37:52.254Z,7.40
2019-04-21T06:39:04.734Z,7.50
2019-04-21T06:40:09.363Z,7.40
2019-04-21T06:41:00.437Z,7.60
2019-04-21T06:41:49.150Z,7.20
2019-04-21T06:43:07.912Z,7.50
2019-04-21T06:45:54.004Z,7.80
2019-04-21T06:46:55.142Z,7.90
2019-04-21T06:47:57.979Z,7.50
2019-04-21T06:48:55.432Z,7.90
2019-04-21T06:49:50.877Z,7.40
2019-04-21T06:50:52.433Z,7.70
2019-04-21T06:51:54.521Z,7.60
2019-04-21T06:53:01.112Z,7.40
2019-04-21T06:53:59.368Z,7.70
2019-04-21T06:54:57.256Z,7.70
2019-04-21T06:55:57.477Z,7.20
2019-04-21T06:56:52.320Z,8.00
2019-04-21T06:57:51.921Z,8.00
2019-04-21T06:58:51.780Z,7.80
2019-04-21T06:59:54.224Z,7.70
2019-04-21T07:00:47.705Z,7.80
2019-04-21T07:02:06.950Z,7.70
2019-04-21T07:03:01.191Z,7.80
2019-04-21T07:04:03.133Z,7.90
2019-04-21T07:04:54.763Z,8.00
2019-04-21T07:05:57.281Z,7.80
2019-04-21T07:06:54.654Z,8.00
2019-04-21T07:08:10.962Z,7.80
2019-04-21T07:09:02.492Z,7.50
2019-04-21T07:09:58.500Z,7.80
2019-04-21T07:10:51.702Z,7.70
2019-04-21T07:11:49.050Z,7.80
2019-04-21T07:12:53.994Z,7.50
2019-04-21T07:13:44.034Z,7.50
2019-04-21T07:14:52.793Z,7.80
2019-04-21T07:15:53.811Z,8.00
2019-04-21T07:17:54.280Z,8.40
2019-04-21T07:19:00.067Z,8.80
2019-04-21T07:19:57.160Z,8.30
2019-04-21T07:20:53.255Z,8.70
2019-04-21T07:21:50.987Z,8.20
2019-04-21T07:22:56.837Z,8.60
2019-04-21T07:23:55.152Z,8.00
2019-04-21T07:24:48.219Z,8.20
2019-04-21T07:25:53.229Z,8.00
2019-04-21T07:26:56.872Z,8.10
2019-04-21T07:27:52.302Z,8.30
2019-04-21T07:28:56.271Z,8.00
2019-04-21T07:29:53.391Z,8.70
2019-04-21T07:30:51.543Z,8.00
2019-04-21T07:31:59.242Z,8.30
2019-04-21T07:32:58.089Z,8.70
2019-04-21T07:34:52.173Z,8.50
2019-04-21T07:35:50.904Z,8.60
2019-04-21T07:37:53.652Z,8.70
2019-04-21T07:38:50.379Z,8.20
2019-04-21T07:39:49.930Z,8.40
2019-04-21T07:40:45.492Z,7.80
2019-04-21T07:41:48.412Z,8.70
2019-04-21T07:42:56.128Z,8.70
2019-04-21T07:43:44.045Z,9.00
2019-04-21T07:44:44.799Z,8.80
2019-04-21T07:45:47.249Z,9.00
2019-04-21T07:46:47.186Z,9.40
2019-04-21T07:47:53.145Z,9.00
2019-04-21T07:48:49.501Z,9.20
2019-04-21T07:49:54.962Z,9.10
2019-04-21T07:50:51.429Z,9.20
2019-04-21T07:51:54.910Z,8.90
2019-04-21T07:52:53.597Z,8.90
2019-04-21T07:53:58.379Z,9.30
2019-04-21T07:54:57.373Z,9.40
2019-04-21T07:55:30.195Z,9.20
2019-04-21T07:56:34.938Z,8.90
2019-04-21T07:57:45.680Z,8.50
2019-04-21T07:58:53.880Z,9.00
2019-04-21T07:59:56.547Z,9.20
2019-04-21T08:01:11.919Z,9.50
2019-04-21T08:01:50.860Z,8.90
2019-04-21T08:02:52.405Z,8.80
2019-04-21T08:05:53.683Z,9.40
2019-04-21T08:07:51.880Z,9.10
2019-04-21T08:08:50.686Z,8.80
2019-04-21T08:09:47.281Z,9.30
2019-04-21T08:10:45.284Z,9.30
2019-04-21T08:11:41.628Z,9.00
2019-04-21T08:12:49.683Z,9.20
2019-04-21T08:14:01.081Z,9.00
2019-04-21T08:14:50.798Z,8.90
2019-04-21T08:16:07.726Z,9.20
2019-04-21T08:16:51.170Z,9.00
2019-04-21T08:17:48.038Z,9.20
2019-04-21T08:18:50.217Z,9.10
2019-04-21T08:19:42.565Z,8.60
2019-04-21T08:20:47.780Z,8.50
2019-04-21T08:21:53.062Z,8.90
2019-04-21T08:22:51.701Z,9.20
2019-04-21T08:23:50.239Z,9.40
2019-04-21T08:24:52.126Z,8.80
2019-04-21T08:26:04.839Z,8.90
2019-04-21T08:26:52.577Z,8.90
2019-04-21T08:28:56.471Z,8.50
2019-04-21T08:29:52.182Z,8.70
2019-04-21T08:30:47.719Z,9.10
2019-04-21T08:31:56.170Z,9.30
2019-04-21T08:33:14.227Z,9.30
2019-04-21T08:33:56.107Z,9.20
2019-04-21T08:34:57.368Z,9.00
2019-04-21T08:36:51.590Z,8.20
2019-04-21T08:37:48.361Z,8.50
2019-04-21T08:38:49.608Z,9.10
2019-04-21T08:39:58.041Z,9.50
2019-04-21T08:40:49.237Z,10.10
2019-04-21T08:41:49.651Z,10.80
2019-04-21T08:42:53.987Z,17.60
2019-04-21T08:43:51.983Z,13.10
2019-04-21T08:44:52.964Z,9.10
2019-04-21T08:45:52.677Z,12.50
2019-04-21T08:46:54.701Z,10.20
2019-04-21T08:48:49.470Z,8.30
2019-04-21T08:49:48.633Z,8.40
2019-04-21T08:50:52.575Z,8.30
2019-04-21T08:51:56.636Z,8.50
2019-04-21T08:52:56.618Z,8.50
2019-04-21T08:54:49.663Z,8.10
2019-04-21T08:56:00.572Z,7.90
2019-04-21T08:56:46.727Z,7.80
2019-04-21T08:58:00.744Z,7.40
2019-04-21T08:58:52.911Z,7.50
2019-04-21T08:59:56.859Z,7.00
2019-04-21T09:00:47.112Z,7.40
2019-04-21T09:01:48.951Z,7.60
2019-04-21T09:02:47.347Z,7.80
2019-04-21T09:03:44.032Z,7.50
2019-04-21T09:04:48.021Z,7.00
2019-04-21T09:05:49.415Z,7.60
2019-04-21T09:06:58.684Z,6.90
2019-04-21T09:07:52.519Z,6.80
2019-04-21T09:08:46.082Z,6.90
2019-04-21T09:09:47.567Z,6.90
2019-04-21T09:10:47.054Z,7.00
2019-04-21T09:11:49.892Z,6.90
2019-04-21T09:12:46.692Z,6.80
2019-04-21T09:13:49.043Z,6.70
2019-04-21T09:14:52.757Z,7.10
2019-04-21T09:15:41.669Z,6.90
2019-04-21T09:16:41.095Z,7.00
2019-04-21T09:17:41.141Z,7.30
2019-04-21T09:18:40.422Z,7.00
2019-04-21T09:20:07.792Z,7.10
2019-04-21T09:21:49.970Z,7.00
2019-04-21T09:22:47.788Z,6.50
2019-04-21T09:23:44.914Z,6.50
2019-04-21T09:24:46.898Z,6.30
2019-04-21T09:25:47.300Z,6.30
2019-04-21T09:26:46.498Z,6.40
2019-04-21T09:27:42.138Z,6.40
2019-04-21T09:28:39.422Z,6.50
2019-04-21T09:29:36.744Z,6.10
2019-04-21T09:30:33.909Z,6.60
2019-04-21T09:31:33.791Z,6.30
2019-04-21T09:32:31.389Z,6.20
2019-04-21T09:33:33.444Z,6.10
2019-04-21T09:34:33.209Z,6.10
2019-04-21T09:35:29.079Z,6.30
2019-04-21T09:36:36.134Z,6.10
2019-04-21T09:37:39.561Z,6.30
2019-04-21T09:38:35.117Z,6.40
2019-04-21T09:39:30.061Z,6.10
2019-04-21T09:40:33.623Z,5.90
2019-04-21T09:41:29.625Z,5.90
2019-04-21T09:42:34.813Z,5.90
2019-04-21T09:43:37.700Z,5.90
2019-04-21T09:44:33.398Z,6.40
2019-04-21T09:45:28.604Z,6.20
2019-04-21T09:46:27.607Z,6.30
2019-04-21T09:47:35.147Z,6.40
2019-04-21T09:48:30.630Z,5.90
2019-04-21T09:49:31.277Z,6.40
2019-04-21T09:50:27.732Z,6.20
2019-04-21T09:51:27.810Z,6.10
2019-04-21T09:52:37.139Z,6.00
2019-04-21T09:53:33.220Z,5.70
2019-04-21T09:54:31.531Z,5.70
2019-04-21T09:55:36.474Z,7.00
2019-04-21T09:56:37.434Z,6.10
2019-04-21T09:57:38.260Z,5.70
2019-04-21T09:58:34.598Z,5.60
2019-04-21T09:59:33.518Z,5.60
2019-04-21T10:00:31.443Z,5.20
2019-04-21T10:01:38.270Z,5.60
2019-04-21T10:02:42.847Z,5.60
2019-04-21T10:03:37.128Z,5.40
2019-04-21T10:04:28.896Z,5.60
2019-04-21T10:05:27.335Z,5.70
2019-04-21T10:06:28.238Z,5.70
2019-04-21T10:07:33.384Z,5.80
2019-04-21T10:08:27.535Z,5.80
2019-04-21T10:09:26.527Z,5.70
2019-04-21T10:10:27.582Z,5.90
2019-04-21T10:11:26.925Z,5.90
2019-04-21T10:12:26.492Z,5.80
2019-04-21T10:13:27.429Z,5.70
2019-04-21T10:14:26.515Z,5.80
2019-04-21T10:15:28.241Z,5.50
2019-04-21T10:16:26.439Z,5.60
2019-04-21T10:17:27.549Z,5.30
2019-04-21T10:18:29.372Z,5.60
2019-04-21T10:19:27.509Z,5.40
2019-04-21T10:20:26.567Z,5.50
2019-04-21T10:21:27.727Z,5.40
2019-04-21T10:22:26.691Z,5.70
2019-04-21T10:23:27.431Z,5.60
2019-04-21T10:24:26.481Z,5.50
2019-04-21T10:25:26.375Z,5.10
2019-04-21T10:26:26.465Z,5.10
2019-04-21T10:27:27.322Z,5.20
2019-04-21T10:28:26.864Z,5.00
2019-04-21T10:29:29.523Z,5.30
2019-04-21T10:30:28.617Z,5.40
2019-04-21T10:31:27.020Z,4.70
2019-04-21T10:32:26.266Z,4.70
2019-04-21T10:33:26.346Z,5.00
2019-04-21T10:34:27.283Z,4.90
2019-04-21T10:35:26.348Z,5.00
2019-04-21T10:36:26.862Z,5.00
2019-04-21T10:37:38.857Z,4.80
2019-04-21T10:38:36.552Z,4.60
2019-04-21T10:39:27.416Z,4.70
2019-04-21T10:40:27.496Z,4.60
2019-04-21T10:41:27.479Z,5.10
2019-04-21T10:42:27.010Z,4.60
2019-04-21T10:43:27.478Z,4.80
2019-04-21T10:44:27.339Z,5.40
2019-04-21T10:45:26.163Z,5.10
2019-04-21T10:46:26.684Z,5.10
2019-04-21T10:47:26.965Z,5.20
2019-04-21T10:48:26.104Z,5.10
2019-04-21T10:49:26.606Z,5.50
2019-04-21T10:50:26.818Z,5.20
2019-04-21T10:51:26.086Z,5.20
2019-04-21T10:52:29.251Z,5.30
2019-04-21T10:53:27.061Z,5.10
2019-04-21T10:54:27.284Z,5.10
2019-04-21T10:55:45.011Z,4.90
2019-04-21T10:56:34.446Z,5.00
2019-04-21T10:57:28.331Z,5.00
2019-04-21T10:58:36.275Z,4.80
2019-04-21T10:59:35.311Z,4.80
2019-04-21T11:00:26.041Z,4.80
2019-04-21T11:01:27.199Z,4.90
2019-04-21T11:02:26.412Z,5.00
2019-04-21T11:03:26.849Z,4.20
2019-04-21T11:04:32.374Z,3.70
2019-04-21T11:05:27.039Z,4.00
2019-04-21T11:06:26.504Z,4.10
2019-04-21T11:07:31.375Z,4.10
2019-04-21T11:09:37.921Z,3.80
2019-04-21T11:10:36.521Z,4.00
2019-04-21T11:11:37.637Z,3.80
2019-04-21T11:12:39.100Z,3.60
2019-04-21T11:13:36.958Z,3.60
2019-04-21T11:14:36.483Z,3.70
2019-04-21T11:15:37.284Z,4.40
2019-04-21T11:16:37.170Z,4.50
2019-04-21T11:17:36.531Z,4.50
2019-04-21T11:18:37.749Z,4.80
2019-04-21T11:19:36.882Z,5.00
2019-04-21T11:20:37.226Z,4.80
2019-04-21T11:21:40.833Z,4.80
2019-04-21T11:22:38.194Z,4.60
2019-04-21T11:23:37.483Z,4.60
2019-04-21T11:24:36.712Z,4.50
2019-04-21T11:25:37.603Z,4.30
2019-04-21T11:26:37.825Z,4.10
2019-04-21T11:28:48.951Z,5.20
2019-04-21T11:29:48.037Z,4.70
2019-04-21T11:30:48.754Z,4.60
2019-04-21T11:31:49.338Z,4.60
2019-04-21T11:32:49.437Z,5.20
2019-04-21T11:33:53.562Z,5.30
2019-04-21T11:34:49.060Z,4.50
2019-04-21T11:35:49.461Z,5.10
2019-04-21T11:36:48.121Z,4.80
2019-04-21T11:37:48.342Z,4.30
2019-04-21T11:39:08.634Z,4.40
2019-04-21T11:39:55.313Z,4.40
2019-04-21T11:40:49.814Z,4.20
2019-04-21T11:41:48.016Z,4.50
2019-04-21T11:42:48.169Z,4.40
2019-04-21T11:43:48.860Z,4.60
2019-04-21T11:44:49.271Z,4.50
2019-04-21T11:45:48.528Z,4.40
2019-04-21T11:46:48.873Z,4.60
2019-04-21T11:47:48.246Z,4.30
2019-04-21T11:48:48.336Z,4.40
2019-04-21T11:49:49.258Z,4.40
2019-04-21T11:50:48.827Z,4.20
2019-04-21T11:51:48.967Z,4.20
2019-04-21T11:52:49.229Z,4.40
2019-04-21T11:53:48.797Z,4.30
2019-04-21T11:54:48.665Z,4.70
2019-04-21T11:55:49.943Z,4.60
2019-04-21T11:56:48.549Z,4.40
2019-04-21T11:57:49.791Z,4.60
2019-04-21T11:58:47.903Z,4.70
2019-04-21T11:59:47.994Z,4.40
2019-04-21T12:00:47.707Z,4.10
2019-04-21T12:01:47.743Z,4.30
2019-04-21T12:02:47.786Z,3.90
2019-04-21T12:03:47.667Z,4.40
2019-04-21T12:04:47.709Z,4.20
2019-04-21T12:05:47.793Z,4.30
2019-04-21T12:06:49.205Z,4.20
2019-04-21T12:07:47.627Z,4.10
2019-04-21T12:08:50.986Z,3.90
2019-04-21T12:09:48.629Z,3.80
2019-04-21T12:10:47.597Z,4.00
2019-04-21T12:11:47.569Z,4.30
2019-04-21T12:12:47.580Z,4.00
2019-04-21T12:13:47.941Z,3.90
2019-04-21T12:14:48.025Z,4.10
2019-04-21T12:15:47.580Z,4.10
2019-04-21T12:16:48.685Z,4.00
2019-04-21T12:17:48.087Z,3.70
2019-04-21T12:18:47.530Z,3.90
2019-04-21T12:19:48.526Z,3.90
2019-04-21T12:20:47.520Z,4.00
2019-04-21T12:22:00.399Z,4.10
2019-04-21T12:22:49.441Z,4.20
2019-04-21T12:23:48.128Z,3.80
2019-04-21T12:24:47.456Z,3.70
2019-04-21T12:25:47.474Z,3.90
2019-04-21T12:26:47.437Z,3.80
2019-04-21T12:27:48.009Z,3.80
2019-04-21T12:28:47.915Z,3.90
2019-04-21T12:29:48.004Z,3.60
2019-04-21T12:30:47.460Z,4.20
2019-04-21T12:31:47.639Z,3.80
2019-04-21T12:32:48.595Z,3.80
2019-04-21T12:33:47.827Z,3.80
2019-04-21T12:34:50.099Z,3.70
2019-04-21T12:35:48.189Z,3.80
2019-04-21T12:36:48.625Z,3.60
2019-04-21T12:37:48.890Z,3.70
2019-04-21T12:38:53.915Z,3.80
2019-04-21T12:39:48.628Z,3.70
2019-04-21T12:40:48.482Z,3.40
2019-04-21T12:41:48.738Z,3.60
2019-04-21T12:42:48.320Z,3.40
2019-04-21T12:43:48.598Z,3.50
2019-04-21T12:44:47.528Z,3.60
2019-04-21T12:45:47.241Z,3.50
2019-04-21T12:46:47.726Z,4.70
2019-04-21T12:47:49.952Z,4.00
2019-04-21T12:48:47.260Z,3.60
2019-04-21T12:49:47.789Z,3.60
2019-04-21T12:50:47.929Z,3.50
2019-04-21T12:51:48.050Z,3.70
2019-04-21T12:52:47.447Z,3.60
2019-04-21T12:53:47.768Z,3.60
2019-04-21T12:54:47.993Z,3.80
2019-04-21T12:55:48.055Z,3.80
2019-04-21T12:56:47.677Z,3.70
2019-04-21T12:57:47.680Z,3.50
2019-04-21T12:58:47.279Z,3.60
2019-04-21T12:59:47.127Z,3.50
2019-04-21T13:00:47.273Z,3.60
2019-04-21T13:01:47.115Z,3.70
2019-04-21T13:02:47.745Z,3.60
2019-04-21T13:03:47.978Z,3.60
2019-04-21T13:04:49.299Z,3.80
2019-04-21T13:05:47.552Z,3.50
2019-04-21T13:06:47.599Z,3.60
2019-04-21T13:07:47.053Z,3.70
2019-04-21T13:08:55.652Z,3.40
2019-04-21T13:09:48.436Z,3.60
2019-04-21T13:10:48.450Z,3.40
2019-04-21T13:11:47.051Z,3.50
2019-04-21T13:12:47.991Z,3.60
2019-04-21T13:13:48.097Z,3.50
2019-04-21T13:14:47.495Z,3.40
2019-04-21T13:15:47.537Z,3.40
2019-04-21T13:16:47.780Z,3.60
2019-04-21T13:17:47.409Z,3.30
2019-04-21T13:18:47.152Z,3.30
2019-04-21T13:19:47.305Z,3.40
2019-04-21T13:20:46.950Z,3.60
2019-04-21T13:21:47.932Z,3.40
2019-04-21T13:22:48.198Z,3.40
2019-04-21T13:23:47.242Z,3.20
2019-04-21T13:24:47.582Z,3.50
2019-04-21T13:25:47.896Z,3.20
2019-04-21T13:26:52.375Z,3.00
2019-04-21T13:27:49.220Z,3.20
2019-04-21T13:28:47.944Z,3.50
2019-04-21T13:29:48.197Z,3.40
2019-04-21T13:30:46.849Z,3.60
2019-04-21T13:31:47.983Z,3.70
2019-04-21T13:32:47.063Z,3.50
2019-04-21T13:33:48.031Z,3.30
2019-04-21T13:34:47.815Z,3.30
2019-04-21T13:35:46.865Z,3.60
2019-04-21T13:36:47.688Z,3.60
2019-04-21T13:37:49.316Z,3.50
2019-04-21T13:39:22.122Z,3.70
2019-04-21T13:40:07.556Z,3.50
2019-04-21T13:41:03.875Z,3.70
2019-04-21T13:42:00.531Z,3.90
2019-04-21T13:42:52.226Z,3.60
2019-04-21T13:43:48.545Z,3.70
2019-04-21T13:44:46.730Z,3.40
2019-04-21T13:45:47.808Z,3.70
2019-04-21T13:46:47.162Z,3.70
2019-04-21T13:47:46.664Z,3.80
2019-04-21T13:48:46.660Z,4.00
2019-04-21T13:49:47.618Z,3.60
2019-04-21T13:50:47.035Z,3.90
2019-04-21T13:51:47.856Z,3.70
2019-04-21T13:52:46.848Z,3.60
2019-04-21T13:53:46.609Z,3.80
2019-04-21T13:54:47.430Z,3.80
2019-04-21T13:55:46.781Z,3.70
2019-04-21T13:56:46.957Z,3.70
2019-04-21T13:57:46.629Z,3.60
2019-04-21T13:58:46.535Z,3.80
2019-04-21T13:59:49.314Z,3.60
2019-04-21T14:00:47.682Z,3.70
2019-04-21T14:01:47.692Z,4.00
2019-04-21T14:02:46.971Z,4.20
2019-04-21T14:03:47.321Z,4.00
2019-04-21T14:04:47.366Z,3.90
2019-04-21T14:05:46.612Z,3.80
2019-04-21T14:06:47.917Z,3.60
2019-04-21T14:07:46.510Z,3.60
2019-04-21T14:08:47.186Z,3.50
2019-04-21T14:09:55.252Z,3.60
2019-04-21T14:10:47.507Z,3.50
2019-04-21T14:11:47.449Z,3.40
2019-04-21T14:12:46.706Z,3.60
2019-04-21T14:13:46.381Z,3.70
2019-04-21T14:14:46.463Z,3.80
2019-04-21T14:15:48.289Z,4.00
2019-04-21T14:16:47.887Z,4.10
2019-04-21T14:17:46.754Z,3.70
2019-04-21T14:18:47.387Z,3.80
2019-04-21T14:19:46.355Z,3.90
2019-04-21T14:20:46.947Z,3.80
2019-04-21T14:21:49.147Z,3.60
2019-04-21T14:22:46.487Z,3.90
2019-04-21T14:23:49.292Z,3.70
2019-04-21T14:24:47.911Z,3.90
2019-04-21T14:25:47.866Z,3.70
2019-04-21T14:26:46.251Z,3.70
2019-04-21T14:27:49.047Z,3.90
2019-04-21T14:28:47.234Z,3.60
2019-04-21T14:29:46.222Z,3.50
2019-04-21T14:30:46.244Z,3.80